Airfield :
LOGIN :

Register | Disclaimer

   EN    FR    IT 

 










Legend :    VFR   Marginal VFR   IFR   Intensive IFR   Very Intensive IFR
Visi :
Ceiling :
>= 8 km
>= 3000ft
5 to 8 km
1000 to 3000 ft
1500m to 5 km
500 to 1000 ft
800 to 1500m
200 to 500 ft
< 800m
< 200 ft
Symbols :   Thunderstorms  Fog  Heavy snow  Heavy precipitations  Wind > 20 kt
SIGMETs :     Misc.  Thunderstorms  Icing  Turbulence  Mountain Waves  Volcanic Ashes







- Airport Elevation : 15 ft
- IATA code : FCO


LIRF - Roma Leonardo da Vinci Fiumicino

CURRENT METAR :
  • 161950Z 06005KT CAVOK 19/16 Q1018 NOSIG

EXPIRED METARs :
  • 161920Z 13004KT CAVOK 21/17 Q1017 NOSIG
  • 161850Z 13006KT 110V180 9999 FEW050 21/17 Q1017 NOSIG
  • 161820Z 11006KT 080V160 9999 FEW050 21/17 Q1017 NOSIG
  • 161750Z 12006KT 110V170 9999 FEW050 21/17 Q1017 NOSIG
  • 161720Z 13005KT 110V170 9999 FEW050 22/17 Q1017 NOSIG

TAF TAF LIRF
Valid from the 16 at 18:00 until the 18 at 00:00 UTC


161700Z 1618/1724 13010KT 9999 SCT030
BECMG 1619/1621 04008KT
BECMG 1706/1709 15012KT
TEMPO 1710/1718 SHRA
No reported NOTAMs for that airfield.
2 SIGMETs reported for the Roma FIR (LIRR) :
 
Embedded thunderstorms
LIRR SIGMET 2 VALID 162000/162200 LIIB
LIRR ROMA FIR EMBD TS OBS WI N4126 E01204 - N3840 E00913 - N3723 E01143 - N3706 E01158 - N3817 E01224 - N3843 E01440 - N4126 E01204 TOP FL390 STNR NC=
Embedded thunderstorms
LIRR SIGMET 1 VALID 161740/162000 LIIB
LIRR ROMA FIR EMBD TS OBS WI N4012 E00953 - N3746 E01213 - N3933 E01452 - N4125 E01219 - N4012 E00953 TOP FL390 STNR NC=



MET'MAP, your aeronautical weather chart ! - Copyright ORBIFLY December 2007 - Disclaimer

ORBIFLY MET'MAP TEAM :

Programming & Development : Alexandra Zaïnal
Concept & Development : Baudouin d'Aumeries
Co-Development & Prog : Marc-Olivier Méhu
Technical & hardware support : Manuel Goepfert

Contact : metmap@orbifly.com




SOURCES & CREDITS :

   NOAA